Airfield :
LOGIN :

Register | Disclaimer

   EN    FR    IT 

 










Legend :    VFR   Marginal VFR   IFR   Intensive IFR   Very Intensive IFR
Visi :
Ceiling :
>= 8 km
>= 3000ft
5 to 8 km
1000 to 3000 ft
1500m to 5 km
500 to 1000 ft
800 to 1500m
200 to 500 ft
< 800m
< 200 ft
Symbols :   Thunderstorms  Fog  Heavy snow  Heavy precipitations  Wind > 20 kt
SIGMETs :     Misc.  Thunderstorms  Icing  Turbulence  Mountain Waves  Volcanic Ashes






- Airport Elevation : 202 ft
- IATA code : LGW


EGKK - London Gatwick

CURRENT METAR :
  • 160950Z 20004KT 160V240 CAVOK 07/07 Q1002

EXPIRED METARs :
  • 160920Z 17005KT 9999 -RA FEW048 07/06 Q1001
  • 160850Z 18004KT 160V230 CAVOK 07/06 Q1001
  • 160820Z 18005KT CAVOK 07/05 Q1001
  • 160750Z 17005KT 130V210 9999 FEW045 06/06 Q1000
  • 160720Z 16006KT 9999 -RA FEW038 06/06 Q1000

TAF TAF EGKK
Valid from the 16 at 06:00 until the 17 at 12:00 UTC


160509Z 1606/1712 21010KT 9999 FEW030
PROB30
TEMPO 1606/1612 7000 SHRA
BECMG 1614/1617 VRB05KT
TEMPO 1614/1712 6000 -RA BKN009
PROB30
TEMPO 1700/1712 3000 RADZ BKN004



MET'MAP, your aeronautical weather chart ! - Copyright ORBIFLY December 2007 - Disclaimer

ORBIFLY MET'MAP TEAM :

Programming & Development : Alexandra Zaïnal
Concept & original design : Baudouin d'Aumeries
Assistance for programming : Marc-Olivier Méhu
Technical & hardware support : Manuel Goepfert

Contact : metmap@orbifly.com




SOURCES & CREDITS :

   NOAA